Time;durP1;ratioP1;P1;durP2;ratioP2;P2;SDS_P1;SDS_P2;PMS_P1;PMS_P2;Temp;Humidity;BMP_temperature;BMP_pressure;BME280_temperature;BME280_humidity;BME280_pressure;Samples;Min_cycle;Max_cycle;Signal;HPM_P1;HPM_P2
2022/08/12 00:43:02;;;;;;;11.20;2.40;;;16.40;99.90;;;;;;2604119;54;20081;31
2022/08/12 00:46:29;;;;;;;4.83;1.80;;;16.40;99.90;;;;;;2603885;54;20077;31
2022/08/12 00:48:30;;;;;;;4.43;1.48;;;16.40;99.90;;;;;;2603766;54;20273;31
2022/08/12 00:51:05;;;;;;;4.30;1.60;;;16.40;99.90;;;;;;2604149;54;19950;31
2022/08/12 00:53:43;;;;;;;3.22;1.83;;;16.40;99.90;;;;;;2702478;39;20571;31
2022/08/12 00:56:18;;;;;;;3.05;2.03;;;16.40;99.90;;;;;;2622117;46;20782;31
2022/08/12 00:58:52;;;;;;;7.17;2.40;;;16.40;99.90;;;;;;2603861;54;20032;31
2022/08/12 01:01:29;;;;;;;5.32;2.10;;;16.30;99.90;;;;;;2603736;54;20120;31
2022/08/12 01:12:46;;;;;;;3.38;2.03;;;16.30;99.90;;;;;;2603922;54;20046;31
2022/08/12 01:15:22;;;;;;;4.10;1.60;;;16.40;99.90;;;;;;2603894;54;20168;31
2022/08/12 01:17:57;;;;;;;2.83;2.07;;;16.40;99.90;;;;;;2603905;54;20132;31
2022/08/12 01:20:39;;;;;;;7.78;2.30;;;16.40;99.90;;;;;;2603765;54;20140;31
2022/08/12 01:23:25;;;;;;;2.70;1.58;;;16.40;99.90;;;;;;2603924;54;20888;31
2022/08/12 01:26:05;;;;;;;4.28;1.90;;;16.40;99.90;;;;;;2603799;54;20963;31
2022/08/12 01:28:41;;;;;;;3.92;2.00;;;16.40;99.90;;;;;;2622346;46;20026;31
2022/08/12 01:31:16;;;;;;;;;;;16.40;99.90;;;;;;2603860;54;20033;31
2022/08/12 01:34:01;;;;;;;4.10;2.00;;;16.40;99.90;;;;;;2622394;46;19947;31
2022/08/12 01:36:38;;;;;;;3.97;2.33;;;16.40;99.90;;;;;;2603851;54;20173;31
2022/08/12 01:39:15;;;;;;;3.25;2.25;;;16.40;99.90;;;;;;2603767;54;20026;31
2022/08/12 01:41:55;;;;;;;6.30;2.70;;;16.40;99.90;;;;;;2622064;46;20869;31
2022/08/12 01:44:31;;;;;;;4.17;1.73;;;16.40;99.90;;;;;;2622426;46;20250;31
2022/08/12 01:47:07;;;;;;;4.43;1.40;;;16.40;99.90;;;;;;2702557;39;21031;31
2022/08/12 01:49:48;;;;;;;3.40;1.50;;;16.40;99.90;;;;;;2603711;54;20054;31
2022/08/12 01:52:31;;;;;;;3.38;1.42;;;16.40;99.90;;;;;;2603700;54;19950;31
2022/08/12 01:55:08;;;;;;;3.85;2.20;;;16.50;99.90;;;;;;2603643;54;20082;31
2022/08/12 01:57:49;;;;;;;2.60;1.60;;;16.40;99.90;;;;;;2603940;54;20027;31
2022/08/12 02:00:47;;;;;;;3.08;1.85;;;16.50;99.90;;;;;;2603578;54;20960;31
2022/08/12 02:03:28;;;;;;;3.20;2.25;;;16.40;99.90;;;;;;2603693;54;20038;31
2022/08/12 02:11:49;;;;;;;1.90;1.50;;;16.40;99.90;;;;;;2621747;46;20130;31
2022/08/12 02:14:51;;;;;;;2.70;1.40;;;16.40;99.90;;;;;;2603851;54;20860;31
2022/08/12 02:17:40;;;;;;;2.67;1.70;;;16.40;99.90;;;;;;2603938;54;20030;31
2022/08/12 02:20:36;;;;;;;3.00;1.70;;;16.40;99.90;;;;;;2603499;54;20027;31
2022/08/12 02:23:28;;;;;;;3.75;1.80;;;16.40;99.90;;;;;;2603846;54;20037;31
2022/08/12 02:26:05;;;;;;;3.47;2.10;;;16.40;99.90;;;;;;2603557;54;20030;31
2022/08/12 02:28:40;;;;;;;3.97;1.87;;;16.40;99.90;;;;;;2603552;54;19989;31
2022/08/12 02:31:17;;;;;;;2.23;1.60;;;16.40;99.90;;;;;;2622156;46;20071;31
2022/08/12 02:33:52;;;;;;;2.65;1.80;;;16.50;99.90;;;;;;2702476;39;22495;31
2022/08/12 02:36:28;;;;;;;3.83;1.90;;;16.40;99.90;;;;;;2603603;54;20053;31
2022/08/12 02:39:06;;;;;;;3.17;2.00;;;16.50;99.90;;;;;;2603689;54;20461;31
2022/08/12 02:41:42;;;;;;;3.42;1.75;;;16.40;99.90;;;;;;2603391;54;20030;31
2022/08/12 02:44:17;;;;;;;4.43;1.90;;;16.40;99.90;;;;;;2603509;54;20026;31
2022/08/12 02:46:56;;;;;;;2.22;1.40;;;16.40;99.90;;;;;;2603596;54;20952;31
2022/08/12 02:49:33;;;;;;;2.73;1.70;;;16.40;99.90;;;;;;2603415;54;20038;31
2022/08/12 02:52:08;;;;;;;3.35;1.70;;;16.40;99.90;;;;;;2621855;46;20042;31
2022/08/12 02:54:42;;;;;;;3.83;2.03;;;16.40;99.90;;;;;;2603486;54;20037;31
2022/08/12 02:57:18;;;;;;;4.30;2.42;;;16.40;99.90;;;;;;2622018;46;20053;31
2022/08/12 02:59:53;;;;;;;1.80;1.30;;;16.40;99.90;;;;;;2603483;54;20452;31
2022/08/12 03:02:31;;;;;;;2.57;1.70;;;16.40;99.90;;;;;;2621355;46;20883;31
2022/08/12 03:05:07;;;;;;;3.40;1.80;;;16.40;99.90;;;;;;2622038;46;20316;31
2022/08/12 03:07:46;;;;;;;3.88;2.00;;;16.40;99.90;;;;;;2603455;54;25042;31
2022/08/12 03:10:34;;;;;;;2.15;1.20;;;16.40;99.90;;;;;;2603471;54;20093;31
2022/08/12 03:13:10;;;;;;;2.57;1.97;;;16.50;99.90;;;;;;2603334;54;20033;31
2022/08/12 03:15:45;;;;;;;2.78;1.70;;;16.40;99.90;;;;;;2622183;46;20030;31
2022/08/12 03:18:25;;;;;;;2.45;1.55;;;16.50;99.90;;;;;;2603591;54;20026;31
2022/08/12 03:21:03;;;;;;;2.63;1.90;;;16.50;99.90;;;;;;2603405;54;20123;31
2022/08/12 03:23:37;;;;;;;2.50;1.60;;;16.50;99.90;;;;;;2603356;54;20030;31
2022/08/12 03:26:13;;;;;;;3.13;1.90;;;16.50;99.90;;;;;;2603365;54;20092;31
2022/08/12 03:28:55;;;;;;;3.83;1.70;;;16.50;99.90;;;;;;2603337;54;20085;31
2022/08/12 03:31:32;;;;;;;2.83;1.40;;;16.50;99.90;;;;;;2621625;46;20032;31
2022/08/12 03:34:12;;;;;;;3.00;1.60;;;16.50;99.90;;;;;;2603171;54;20205;31
2022/08/12 03:36:46;;;;;;;4.30;2.30;;;16.50;99.90;;;;;;2603462;54;20237;31
2022/08/12 03:39:31;;;;;;;4.13;1.85;;;16.40;99.90;;;;;;2603146;54;20065;31
2022/08/12 03:42:25;;;;;;;2.60;1.73;;;16.40;99.90;;;;;;2603215;54;20026;31
2022/08/12 04:02:04;;;;;;;4.22;2.22;;;16.40;99.90;;;;;;2622006;47;20139;31
2022/08/12 04:04:43;;;;;;;2.55;1.80;;;16.40;99.90;;;;;;2603216;54;20049;31
2022/08/12 04:07:23;;;;;;;4.90;1.90;;;16.40;99.90;;;;;;2603262;54;20030;31
2022/08/12 04:10:00;;;;;;;2.58;2.00;;;16.40;99.90;;;;;;2603421;54;20880;31
2022/08/12 04:15:13;;;;;;;4.07;2.40;;;16.40;99.90;;;;;;2603196;54;20030;31
2022/08/12 04:17:48;;;;;;;6.23;3.20;;;16.50;99.90;;;;;;2603275;54;20033;31
2022/08/12 04:20:41;;;;;;;5.70;2.25;;;16.60;99.90;;;;;;2603122;54;20285;31
2022/08/12 04:23:24;;;;;;;6.40;2.53;;;16.60;99.90;;;;;;2603142;54;20050;31
2022/08/12 04:25:58;;;;;;;5.00;2.05;;;16.60;99.90;;;;;;2603221;54;20050;31
2022/08/12 04:28:35;;;;;;;3.77;2.37;;;16.70;99.90;;;;;;2602979;54;25058;31
2022/08/12 04:31:11;;;;;;;5.50;2.20;;;16.80;99.90;;;;;;2621507;47;20085;31
2022/08/12 04:33:46;;;;;;;4.43;1.98;;;16.90;99.90;;;;;;2621511;47;20142;31
2022/08/12 04:36:21;;;;;;;7.20;3.30;;;17.00;99.90;;;;;;2604123;54;19941;31
2022/08/12 04:38:58;;;;;;;5.07;1.70;;;17.00;99.90;;;;;;2622218;46;20294;31
2022/08/12 04:41:33;;;;;;;2.58;1.50;;;17.20;99.90;;;;;;2622732;46;20258;31
2022/08/12 04:44:08;;;;;;;2.53;1.60;;;17.20;99.90;;;;;;2604081;54;20046;31
2022/08/12 04:46:42;;;;;;;5.90;2.25;;;17.40;99.90;;;;;;2603996;54;20031;31
2022/08/12 04:49:16;;;;;;;5.35;2.00;;;17.50;99.90;;;;;;2603721;54;20034;31
2022/08/12 04:51:50;;;;;;;2.92;1.83;;;17.50;99.90;;;;;;2603787;54;20022;31
2022/08/12 04:54:36;;;;;;;4.10;2.35;;;17.60;99.90;;;;;;2702300;39;22427;31
2022/08/12 04:57:12;;;;;;;4.05;1.85;;;17.70;99.90;;;;;;2622399;46;20034;31
2022/08/12 04:59:48;;;;;;;3.40;1.75;;;17.70;99.90;;;;;;2603926;54;20034;31
2022/08/12 05:02:22;;;;;;;;;;;17.80;99.90;;;;;;2604046;54;20057;31
2022/08/12 05:04:58;;;;;;;2.72;1.80;;;17.80;99.90;;;;;;2603773;54;19946;31
2022/08/12 05:07:38;;;;;;;3.08;1.55;;;17.90;99.90;;;;;;2603964;54;20810;31
2022/08/12 05:10:22;;;;;;;3.95;2.10;;;18.00;99.90;;;;;;2603896;54;20026;31
2022/08/12 05:13:13;;;;;;;7.53;1.60;;;18.20;99.90;;;;;;2603774;54;20046;31
2022/08/12 05:15:48;;;;;;;2.50;1.60;;;18.60;99.90;;;;;;2604130;54;20964;31
2022/08/12 05:18:40;;;;;;;3.77;1.43;;;18.90;99.90;;;;;;2603940;54;20034;31
2022/08/12 05:21:18;;;;;;;3.05;1.55;;;19.20;99.90;;;;;;2603935;54;20027;31
2022/08/12 05:23:54;;;;;;;3.77;1.70;;;19.60;99.90;;;;;;2604014;54;20031;31
2022/08/12 05:26:31;;;;;;;;;;;20.00;99.90;;;;;;2603888;54;20907;31
2022/08/12 05:29:08;;;;;;;2.85;1.85;;;20.40;99.90;;;;;;2622311;46;19943;31
2022/08/12 05:32:04;;;;;;;3.30;1.73;;;20.70;99.90;;;;;;2603681;54;20050;31
2022/08/12 05:34:39;;;;;;;;;;;21.10;99.90;;;;;;2603296;54;20039;31
2022/08/12 05:37:14;;;;;;;3.17;1.60;;;21.40;99.90;;;;;;2603672;54;19938;31
2022/08/12 05:39:49;;;;;;;5.25;1.50;;;21.60;99.90;;;;;;2603722;54;20049;31
2022/08/12 05:42:26;;;;;;;5.50;1.50;;;21.90;99.90;;;;;;2702578;39;22230;31
2022/08/12 05:45:10;;;;;;;2.45;1.50;;;22.10;99.90;;;;;;2603950;54;20920;31
2022/08/12 05:47:45;;;;;;;2.47;1.17;;;22.40;99.90;;;;;;2603495;54;20852;31
2022/08/12 05:50:28;;;;;;;1.25;0.85;;;22.60;99.90;;;;;;2603897;54;20117;31
2022/08/12 05:53:05;;;;;;;2.30;1.38;;;22.80;99.90;;;;;;2603514;54;20105;31
2022/08/12 05:55:40;;;;;;;4.72;1.23;;;23.00;99.90;;;;;;2603578;54;20112;31
2022/08/12 05:58:19;;;;;;;1.98;1.25;;;23.20;99.90;;;;;;2603836;54;20030;31
2022/08/12 06:00:55;;;;;;;3.30;1.65;;;23.40;99.90;;;;;;2603597;54;20148;31
2022/08/12 06:03:29;;;;;;;1.85;1.00;;;23.50;99.90;;;;;;2622396;46;20022;31
2022/08/12 06:06:05;;;;;;;6.60;1.65;;;23.70;99.90;;;;;;2603844;54;20108;31
2022/08/12 06:08:47;;;;;;;4.55;1.50;;;23.80;99.90;;;;;;2622102;46;20038;31
2022/08/12 06:11:21;;;;;;;7.13;1.88;;;24.00;99.90;;;;;;2621512;46;25037;31
2022/08/12 06:13:59;;;;;;;4.47;1.83;;;24.10;99.90;;;;;;2603771;54;20038;31
2022/08/12 06:16:34;;;;;;;2.00;1.20;;;24.40;99.90;;;;;;2603690;54;20042;31
2022/08/12 06:19:09;;;;;;;5.03;1.63;;;24.50;99.90;;;;;;2603798;54;20026;31
2022/08/12 06:21:47;;;;;;;;;;;24.70;99.90;;;;;;2603788;54;19989;31
2022/08/12 06:24:23;;;;;;;3.33;1.00;;;24.80;99.90;;;;;;2603849;54;19951;31
2022/08/12 06:26:59;;;;;;;2.17;1.20;;;24.90;99.90;;;;;;2603807;54;20029;31
2022/08/12 06:29:37;;;;;;;;;;;25.20;99.90;;;;;;2603465;54;19935;31
2022/08/12 06:32:34;;;;;;;2.13;1.30;;;25.50;99.90;;;;;;2622207;46;20883;31
2022/08/12 06:35:09;;;;;;;2.35;1.15;;;25.60;99.90;;;;;;2603126;54;20120;31
2022/08/12 06:38:05;;;;;;;2.30;0.90;;;25.80;99.90;;;;;;2603534;54;20924;31
2022/08/12 06:43:25;;;;;;;6.15;1.33;;;26.30;99.90;;;;;;2603855;54;20845;31
2022/08/12 06:46:04;;;;;;;3.15;0.90;;;26.40;99.90;;;;;;2603490;54;20026;31
2022/08/12 06:48:40;;;;;;;4.85;1.25;;;26.50;99.90;;;;;;2621724;46;20031;31
2022/08/12 06:51:16;;;;;;;3.10;0.90;;;26.70;99.90;;;;;;2622051;46;20053;31
2022/08/12 06:53:50;;;;;;;4.13;1.27;;;26.70;99.90;;;;;;2622043;46;20847;31
2022/08/12 06:56:26;;;;;;;1.92;1.10;;;26.80;99.90;;;;;;2603607;54;20821;31
2022/08/12 06:59:22;;;;;;;14.32;1.23;;;26.80;99.90;;;;;;2603548;54;20093;31
2022/08/12 07:02:03;;;;;;;8.32;1.50;;;27.00;99.90;;;;;;2603360;54;20034;31
2022/08/12 07:04:39;;;;;;;7.10;1.45;;;27.10;99.90;;;;;;2603608;54;20030;31
2022/08/12 07:07:17;;;;;;;5.22;1.17;;;27.10;99.90;;;;;;2603375;54;20929;31
2022/08/12 07:12:47;;;;;;;7.37;1.50;;;27.30;99.90;;;;;;2603698;54;20026;31
2022/08/12 07:15:25;;;;;;;4.47;1.00;;;27.40;99.90;;;;;;2603318;54;20026;31
2022/08/12 07:18:04;;;;;;;2.70;1.40;;;27.50;99.90;;;;;;2603328;54;20030;31
2022/08/12 07:20:42;;;;;;;3.40;1.35;;;27.60;99.90;;;;;;2603487;54;20027;31
2022/08/12 07:23:26;;;;;;;2.90;1.35;;;27.70;99.90;;;;;;2603249;54;20057;31
2022/08/12 07:26:01;;;;;;;3.55;1.17;;;27.80;99.90;;;;;;2603592;54;20144;31
2022/08/12 07:28:40;;;;;;;1.60;1.25;;;27.90;99.90;;;;;;2603533;54;20034;31
2022/08/12 07:31:15;;;;;;;1.77;1.00;;;28.10;99.90;;;;;;2603536;54;20871;31
2022/08/12 07:33:57;;;;;;;;;;;28.20;99.90;;;;;;2603669;54;20105;31
2022/08/12 07:36:34;;;;;;;2.25;1.30;;;28.30;99.90;;;;;;2603736;54;19934;31
2022/08/12 07:39:12;;;;;;;3.00;1.13;;;28.30;99.90;;;;;;2603312;54;20886;31
2022/08/12 07:41:47;;;;;;;2.45;1.17;;;28.40;99.90;;;;;;2702271;39;22191;31
2022/08/12 07:44:24;;;;;;;2.83;1.00;;;28.50;99.90;;;;;;2603419;54;20885;31
2022/08/12 07:46:58;;;;;;;2.00;0.90;;;28.70;99.90;;;;;;2621735;46;20030;31
2022/08/12 07:49:37;;;;;;;2.33;1.20;;;28.80;99.90;;;;;;2603581;54;20033;31
2022/08/12 07:52:34;;;;;;;2.33;1.07;;;28.90;99.90;;;;;;2603525;54;20038;31
2022/08/12 07:55:11;;;;;;;6.25;1.00;;;28.90;99.80;;;;;;2603461;54;20026;31
2022/08/12 07:57:59;;;;;;;2.33;0.80;;;29.10;99.20;;;;;;2603481;54;20035;31
2022/08/12 08:00:36;;;;;;;1.75;1.00;;;29.20;99.20;;;;;;2603323;54;20983;31
2022/08/12 08:03:15;;;;;;;2.40;0.90;;;29.20;98.70;;;;;;2603281;54;20972;31
2022/08/12 08:05:53;;;;;;;2.97;0.95;;;29.50;98.60;;;;;;2603230;54;20033;31
2022/08/12 08:08:33;;;;;;;2.10;0.80;;;29.60;98.40;;;;;;2603404;54;20022;31
2022/08/12 08:14:00;;;;;;;1.65;1.00;;;29.80;97.20;;;;;;2603974;54;20856;31
2022/08/12 08:16:36;;;;;;;1.73;0.93;;;29.70;97.60;;;;;;2603990;54;20085;31
2022/08/12 08:19:22;;;;;;;1.30;0.70;;;29.80;97.60;;;;;;2604060;54;20853;31
2022/08/12 08:21:58;;;;;;;2.40;1.05;;;30.20;97.70;;;;;;2604180;54;20041;31
2022/08/12 08:24:38;;;;;;;2.15;0.90;;;30.40;96.10;;;;;;2604076;54;20808;31
2022/08/12 08:29:49;;;;;;;1.47;0.80;;;30.50;95.60;;;;;;2622343;46;20026;31
2022/08/12 08:32:25;;;;;;;3.70;0.90;;;30.70;95.20;;;;;;2603201;54;20102;31
2022/08/12 08:35:09;;;;;;;2.08;1.33;;;30.60;95.00;;;;;;2622200;46;20836;31
2022/08/12 08:37:46;;;;;;;1.40;0.88;;;30.80;94.90;;;;;;2604026;54;20027;31
2022/08/12 08:43:11;;;;;;;4.25;0.90;;;30.90;94.60;;;;;;2622280;46;20950;31
2022/08/12 08:45:47;;;;;;;3.97;0.77;;;31.00;94.00;;;;;;2603880;54;20952;31
2022/08/12 08:48:24;;;;;;;0.88;0.60;;;30.90;93.70;;;;;;2603951;54;20085;31
2022/08/12 08:50:59;;;;;;;3.70;1.00;;;31.10;94.40;;;;;;2603872;54;20888;31
2022/08/12 08:53:40;;;;;;;2.25;0.85;;;31.30;94.00;;;;;;2604155;54;20864;31
2022/08/12 08:56:24;;;;;;;1.87;0.70;;;31.30;94.00;;;;;;2603816;54;20045;31
2022/08/12 08:58:59;;;;;;;3.03;0.70;;;31.10;93.90;;;;;;2604015;54;20895;31
2022/08/12 09:01:34;;;;;;;2.17;0.90;;;31.20;93.30;;;;;;2603882;54;20113;31
2022/08/12 09:04:12;;;;;;;2.17;0.70;;;31.20;93.50;;;;;;2603946;54;20871;31
2022/08/12 09:07:11;;;;;;;1.48;0.68;;;31.30;93.20;;;;;;2604117;54;20030;31
2022/08/12 09:10:07;;;;;;;3.28;0.80;;;31.20;93.40;;;;;;2603826;54;20056;31
2022/08/12 09:16:05;;;;;;;3.30;1.23;;;31.00;93.30;;;;;;2603932;54;20023;31
2022/08/12 09:18:42;;;;;;;2.55;0.80;;;30.70;92.40;;;;;;2622535;46;20106;31
2022/08/12 09:21:18;;;;;;;2.15;0.90;;;30.40;92.40;;;;;;2603749;54;20034;31
2022/08/12 09:23:57;;;;;;;2.05;1.17;;;30.30;92.40;;;;;;2773865;31;21110;31
2022/08/12 09:26:39;;;;;;;3.80;0.90;;;30.00;92.80;;;;;;2774020;31;21178;31
2022/08/12 09:29:35;;;;;;;3.33;0.97;;;29.90;93.10;;;;;;2603796;54;20034;31
2022/08/12 09:32:29;;;;;;;4.15;0.90;;;29.90;93.30;;;;;;2603850;54;20042;31
2022/08/12 09:35:32;;;;;;;4.73;0.90;;;29.90;93.30;;;;;;2622223;46;20089;31
2022/08/12 09:38:19;;;;;;;1.60;1.00;;;29.90;93.00;;;;;;2603761;54;20022;31
2022/08/12 09:41:04;;;;;;;1.38;0.90;;;29.80;93.00;;;;;;2622394;46;21173;31
2022/08/12 09:47:12;;;;;;;2.90;1.30;;;29.60;93.20;;;;;;2603901;54;20844;31
2022/08/12 09:49:48;;;;;;;2.05;1.05;;;29.30;93.30;;;;;;2603487;54;20034;31
2022/08/12 09:52:35;;;;;;;1.83;1.10;;;29.30;93.70;;;;;;2622429;46;20934;31
2022/08/12 09:55:11;;;;;;;4.50;0.90;;;29.40;93.40;;;;;;2603852;54;20033;31
2022/08/12 09:58:08;;;;;;;3.22;1.05;;;29.30;93.50;;;;;;2603815;54;20026;31
2022/08/12 10:01:04;;;;;;;2.88;1.15;;;29.40;93.60;;;;;;2603627;54;20844;31
2022/08/12 10:03:48;;;;;;;10.63;1.33;;;29.70;93.70;;;;;;2621800;46;20031;31
2022/08/12 10:06:41;;;;;;;10.87;2.23;;;30.00;93.60;;;;;;2603564;54;20027;31
2022/08/12 10:09:33;;;;;;;5.18;1.35;;;30.30;94.10;;;;;;2603967;54;20030;31
2022/08/12 10:15:17;;;;;;;3.50;1.23;;;30.40;92.00;;;;;;2603609;54;20030;31
2022/08/12 10:18:12;;;;;;;;;;;30.40;92.60;;;;;;2604021;54;20031;31
2022/08/12 10:20:50;;;;;;;5.93;1.23;;;30.30;92.30;;;;;;2603577;54;19934;31
2022/08/12 10:23:27;;;;;;;3.33;1.20;;;30.20;92.70;;;;;;2603493;54;20165;31
2022/08/12 10:32:22;;;;;;;1.98;1.17;;;30.30;92.80;;;;;;2603271;54;20076;31
2022/08/12 10:35:17;;;;;;;3.83;1.27;;;30.20;92.60;;;;;;2621988;46;20023;31
2022/08/12 10:37:54;;;;;;;3.13;1.42;;;29.90;92.70;;;;;;2603813;54;20041;31
2022/08/12 10:43:45;;;;;;;2.53;1.00;;;29.40;93.00;;;;;;2603847;54;20061;31
2022/08/12 10:46:34;;;;;;;3.57;1.50;;;29.30;92.90;;;;;;2621930;46;20035;31
2022/08/12 10:49:11;;;;;;;4.05;1.30;;;29.10;92.90;;;;;;2702440;39;22323;31
2022/08/12 10:52:06;;;;;;;5.07;1.20;;;29.30;93.60;;;;;;2603702;54;20030;31
2022/08/12 10:55:02;;;;;;;;;;;29.60;93.30;;;;;;2622247;46;20773;31
2022/08/12 10:57:46;;;;;;;8.23;1.67;;;29.70;93.40;;;;;;2603387;54;19941;31
2022/08/12 11:00:45;;;;;;;2.95;1.30;;;29.80;93.10;;;;;;2603693;54;20030;31
2022/08/12 11:03:42;;;;;;;6.43;1.30;;;29.60;93.50;;;;;;2603450;54;20089;31
2022/08/12 11:09:34;;;;;;;2.75;1.00;;;29.40;93.20;;;;;;2599953;54;20057;31
2022/08/12 11:12:30;;;;;;;4.07;1.37;;;29.60;92.10;;;;;;2600943;54;20395;31
2022/08/12 11:15:28;;;;;;;2.10;1.15;;;29.80;92.40;;;;;;2600461;54;20027;31
2022/08/12 11:18:24;;;;;;;3.25;1.20;;;29.70;92.70;;;;;;2600462;54;20441;31
2022/08/12 11:21:03;;;;;;;2.90;1.80;;;29.50;92.50;;;;;;2600560;54;20285;31
2022/08/12 11:23:39;;;;;;;2.65;1.20;;;29.30;93.20;;;;;;2603030;54;20036;31
2022/08/12 11:26:14;;;;;;;;;;;29.20;93.20;;;;;;2603538;54;20030;31
2022/08/12 11:28:56;;;;;;;3.15;1.35;;;29.00;93.60;;;;;;2621800;46;19934;31
2022/08/12 11:31:43;;;;;;;3.78;1.40;;;28.70;94.00;;;;;;2603219;54;20099;31
2022/08/12 11:34:35;;;;;;;3.83;1.48;;;28.90;95.30;;;;;;2603045;54;20845;31
2022/08/12 11:37:32;;;;;;;2.45;1.13;;;29.00;93.20;;;;;;2603193;54;20798;31
2022/08/12 11:40:27;;;;;;;2.80;1.33;;;29.30;93.70;;;;;;2603043;54;20096;31
2022/08/12 11:43:02;;;;;;;70.25;5.40;;;29.20;93.30;;;;;;2603329;54;20031;31
2022/08/12 11:45:53;;;;;;;2.13;1.27;;;29.00;93.60;;;;;;2602535;54;20935;31
2022/08/12 11:48:30;;;;;;;1.95;1.38;;;28.90;93.60;;;;;;2621001;46;20883;31
2022/08/12 11:51:27;;;;;;;1.60;1.20;;;28.80;93.70;;;;;;2603124;54;20034;31
2022/08/12 11:54:13;;;;;;;1.67;1.42;;;28.70;93.90;;;;;;2603126;54;20034;31
2022/08/12 11:56:50;;;;;;;2.22;1.05;;;28.70;94.00;;;;;;2602797;54;20037;31
2022/08/12 11:59:35;;;;;;;1.73;1.38;;;28.80;94.20;;;;;;2602966;54;20018;31
2022/08/12 12:02:30;;;;;;;5.18;1.40;;;28.90;94.60;;;;;;2602995;54;20077;31
2022/08/12 12:05:05;;;;;;;;;;;28.90;94.10;;;;;;2603095;54;20053;31
2022/08/12 12:07:43;;;;;;;2.35;1.45;;;28.80;94.00;;;;;;2701270;39;21313;31
2022/08/12 12:10:40;;;;;;;4.18;1.30;;;28.70;94.00;;;;;;2602885;54;20948;31
2022/08/12 12:13:20;;;;;;;2.10;1.20;;;28.70;94.30;;;;;;2621600;47;20039;31
2022/08/12 12:16:14;;;;;;;4.35;1.25;;;28.70;94.00;;;;;;2701273;39;21564;31
2022/08/12 12:18:50;;;;;;;2.20;1.60;;;28.60;94.10;;;;;;2602969;54;20817;31
2022/08/12 12:21:26;;;;;;;3.05;1.20;;;28.60;94.10;;;;;;2602837;54;20081;31
2022/08/12 12:24:20;;;;;;;4.72;1.30;;;28.60;94.30;;;;;;2602800;54;20923;31
2022/08/12 12:26:59;;;;;;;3.00;1.30;;;28.60;94.50;;;;;;2602571;54;20022;31
2022/08/12 12:29:35;;;;;;;2.07;1.23;;;28.50;94.50;;;;;;2603022;54;20030;31
2022/08/12 12:32:30;;;;;;;;;;;28.40;94.50;;;;;;2603122;54;20030;31
2022/08/12 12:35:05;;;;;;;1.67;1.25;;;28.40;94.40;;;;;;2602947;54;20790;31
2022/08/12 12:38:00;;;;;;;3.72;1.85;;;28.50;94.30;;;;;;2621247;47;20026;31
2022/08/12 12:40:46;;;;;;;1.75;1.38;;;28.60;94.20;;;;;;2603000;54;20905;31
2022/08/12 12:43:27;;;;;;;3.55;1.10;;;28.60;93.90;;;;;;2603135;54;20027;31
2022/08/12 12:46:19;;;;;;;2.13;1.30;;;28.50;93.50;;;;;;2602698;54;20143;31
2022/08/12 12:48:54;;;;;;;3.75;1.00;;;28.40;93.20;;;;;;2603050;54;20033;31
2022/08/12 12:51:29;;;;;;;4.00;1.50;;;28.40;93.60;;;;;;2602769;54;20031;31
2022/08/12 12:54:25;;;;;;;1.50;1.00;;;28.40;93.80;;;;;;2602786;54;20057;31
2022/08/12 12:57:02;;;;;;;4.68;1.35;;;28.30;93.50;;;;;;2621972;47;20085;31
2022/08/12 13:00:13;;;;;;;4.22;1.45;;;28.30;93.10;;;;;;2603864;54;20111;31
2022/08/12 13:02:39;;;;;;;3.72;1.10;;;28.20;92.90;;;;;;2603589;54;20077;31
2022/08/12 13:05:15;;;;;;;2.55;1.25;;;28.20;93.60;;;;;;2603674;54;20946;31
2022/08/12 13:07:49;;;;;;;1.80;1.10;;;28.30;93.60;;;;;;2603471;54;20034;31
2022/08/12 13:10:33;;;;;;;25.67;2.88;;;28.40;92.80;;;;;;2603545;54;20057;31
2022/08/12 13:13:24;;;;;;;3.40;1.10;;;28.50;93.50;;;;;;2603497;54;20794;31
2022/08/12 13:16:20;;;;;;;19.17;2.30;;;28.60;93.40;;;;;;2603552;54;20137;31
2022/08/12 13:18:57;;;;;;;2.50;1.25;;;28.60;93.60;;;;;;2603827;54;20798;31
2022/08/12 13:21:32;;;;;;;1.65;1.05;;;28.60;93.50;;;;;;2622285;46;20885;31
2022/08/12 13:24:16;;;;;;;4.05;1.42;;;28.40;93.10;;;;;;2603599;54;20034;31
2022/08/12 13:26:50;;;;;;;1.60;1.15;;;28.30;93.10;;;;;;2603519;54;20061;31
2022/08/12 13:29:29;;;;;;;3.13;1.20;;;28.20;93.20;;;;;;2603536;54;20038;31
2022/08/12 13:32:04;;;;;;;5.72;0.98;;;28.10;93.40;;;;;;2603431;54;20041;31
2022/08/12 13:35:01;;;;;;;3.80;1.30;;;28.10;93.70;;;;;;2603495;54;20101;31
2022/08/12 13:37:58;;;;;;;1.35;1.15;;;28.10;93.60;;;;;;2603573;54;20088;31
2022/08/12 13:40:38;;;;;;;3.33;1.52;;;28.20;93.60;;;;;;2622015;46;20078;31
2022/08/12 13:43:17;;;;;;;2.95;1.10;;;28.30;93.20;;;;;;2603808;54;20030;31
2022/08/12 13:46:15;;;;;;;2.27;1.23;;;28.30;92.80;;;;;;2612465;46;20037;31
2022/08/12 13:48:53;;;;;;;1.92;1.20;;;28.30;92.60;;;;;;2603373;54;20921;31
2022/08/12 13:51:31;;;;;;;3.92;1.60;;;28.40;92.80;;;;;;2604323;46;20042;31
2022/08/12 13:54:19;;;;;;;2.65;1.65;;;28.40;92.50;;;;;;2622055;46;20904;31
2022/08/12 13:56:55;;;;;;;2.30;1.50;;;28.40;92.50;;;;;;2603561;54;20113;31
2022/08/12 13:59:30;;;;;;;2.70;1.10;;;28.40;92.20;;;;;;2603287;54;20022;31
2022/08/12 14:02:25;;;;;;;3.08;1.40;;;28.40;92.70;;;;;;2603387;54;20933;31
2022/08/12 14:05:01;;;;;;;2.40;1.08;;;28.40;92.30;;;;;;2603408;54;20033;31
2022/08/12 14:07:57;;;;;;;1.77;1.10;;;28.40;92.70;;;;;;2603097;54;20057;31
2022/08/12 14:10:39;;;;;;;1.38;1.17;;;28.40;92.50;;;;;;2603293;54;20916;31
2022/08/12 14:13:25;;;;;;;5.13;1.40;;;28.50;93.00;;;;;;2621847;46;20081;31
2022/08/12 14:16:21;;;;;;;3.88;1.40;;;28.60;92.60;;;;;;2603485;54;21293;31
2022/08/12 14:19:16;;;;;;;3.75;1.45;;;28.50;92.70;;;;;;2621801;46;20027;31
2022/08/12 14:22:03;;;;;;;2.65;1.30;;;28.60;92.60;;;;;;2603357;54;20031;31
2022/08/12 14:24:41;;;;;;;1.98;1.52;;;28.60;92.70;;;;;;2603254;54;20037;31
2022/08/12 14:27:19;;;;;;;4.15;1.60;;;28.70;92.90;;;;;;2603512;54;20053;31
2022/08/12 14:30:16;;;;;;;5.78;1.38;;;28.70;92.20;;;;;;2603433;54;20023;31
2022/08/12 14:33:04;;;;;;;2.95;1.30;;;28.70;92.10;;;;;;2603475;54;20856;31
2022/08/12 14:35:44;;;;;;;1.98;1.30;;;28.70;91.90;;;;;;2621750;46;19941;31
2022/08/12 14:38:23;;;;;;;4.00;1.35;;;28.60;91.60;;;;;;2603088;54;20850;31
2022/08/12 14:41:02;;;;;;;1.70;1.55;;;28.60;91.60;;;;;;2603733;54;20022;31
2022/08/12 14:43:40;;;;;;;4.03;1.48;;;28.50;92.40;;;;;;2603259;54;20026;31
2022/08/12 14:46:38;;;;;;;2.95;1.35;;;28.40;91.90;;;;;;2603320;54;20809;31
2022/08/12 14:49:16;;;;;;;2.40;1.38;;;28.30;92.30;;;;;;2603142;54;20802;31
2022/08/12 14:52:11;;;;;;;4.45;1.30;;;28.20;92.00;;;;;;2603227;54;20545;31
2022/08/12 14:55:07;;;;;;;1.45;1.33;;;28.20;92.10;;;;;;2603436;54;20029;31
2022/08/12 14:58:03;;;;;;;3.10;1.45;;;28.20;91.70;;;;;;2603403;54;21203;31
2022/08/12 15:03:30;;;;;;;3.22;1.30;;;28.20;92.30;;;;;;2604625;46;20462;31
2022/08/12 15:06:25;;;;;;;1.43;1.23;;;28.20;92.20;;;;;;2603393;54;20027;31
2022/08/12 15:09:22;;;;;;;2.72;1.27;;;28.20;91.90;;;;;;2603164;54;20133;31
2022/08/12 15:12:02;;;;;;;4.15;1.80;;;28.20;92.40;;;;;;2603153;54;20896;31
2022/08/12 15:14:37;;;;;;;5.40;1.67;;;28.30;92.30;;;;;;2603118;54;20058;31
2022/08/12 15:17:22;;;;;;;3.97;1.48;;;28.30;92.20;;;;;;2603261;54;20072;31
2022/08/12 15:20:13;;;;;;;2.10;1.50;;;28.30;91.80;;;;;;2603257;54;20836;31
2022/08/12 15:23:09;;;;;;;2.20;1.48;;;28.20;92.00;;;;;;2602976;54;20061;31
2022/08/12 15:25:52;;;;;;;;;;;28.20;92.20;;;;;;2621959;46;20027;31
2022/08/12 15:28:36;;;;;;;5.25;1.70;;;28.20;92.00;;;;;;2603024;54;20476;31
2022/08/12 15:31:14;;;;;;;4.05;1.30;;;28.20;92.10;;;;;;2621943;46;20884;31
2022/08/12 15:34:05;;;;;;;3.55;1.70;;;28.20;91.80;;;;;;2701776;39;21633;31
2022/08/12 15:36:44;;;;;;;3.60;1.40;;;28.10;92.00;;;;;;2603042;54;20029;31
2022/08/12 15:39:30;;;;;;;2.65;1.38;;;28.10;92.50;;;;;;2603062;54;20030;31
2022/08/12 15:42:09;;;;;;;1.90;1.70;;;28.00;92.90;;;;;;2602973;54;20117;31
2022/08/12 15:44:44;;;;;;;6.03;1.75;;;28.00;92.60;;;;;;2617333;46;20897;31
2022/08/12 15:47:19;;;;;;;3.80;1.38;;;27.90;92.70;;;;;;2603159;54;20030;31
2022/08/12 15:50:03;;;;;;;2.35;1.35;;;28.00;93.00;;;;;;2617229;46;20861;31
2022/08/12 15:52:38;;;;;;;1.90;1.40;;;27.90;92.40;;;;;;2603144;54;20901;31
2022/08/12 15:55:13;;;;;;;4.18;3.10;;;27.90;92.70;;;;;;2603011;54;20868;31
2022/08/12 15:57:54;;;;;;;4.07;1.88;;;27.90;92.70;;;;;;2608504;47;20054;31
2022/08/12 16:00:30;;;;;;;4.78;1.70;;;27.90;92.60;;;;;;2602877;54;20023;31
2022/08/12 16:03:07;;;;;;;1.65;1.55;;;27.80;92.40;;;;;;2603057;54;20935;31
2022/08/12 16:06:00;;;;;;;4.45;1.75;;;27.70;92.40;;;;;;2620855;47;22169;31
2022/08/12 16:08:51;;;;;;;4.85;1.70;;;27.70;92.20;;;;;;2621399;47;20908;31
2022/08/12 16:11:38;;;;;;;2.07;1.60;;;27.70;92.40;;;;;;2602722;54;20027;31